sensor_id;sensor_type;location;lat;lon;timestamp;temperature;humidity
21928;DHT22;11128;51.096;17.190;2022-12-18T00:02:31;-4.10;1.00
21928;DHT22;11128;51.096;17.190;2022-12-18T00:07:32;-4.40;99.90
21928;DHT22;11128;51.096;17.190;2022-12-18T00:12:33;-4.30;99.90
21928;DHT22;11128;51.096;17.190;2022-12-18T00:17:35;-4.40;99.90
21928;DHT22;11128;51.096;17.190;2022-12-18T01:08:04;-4.30;1.00
21928;DHT22;11128;51.096;17.190;2022-12-18T01:38:13;-4.00;99.90
21928;DHT22;11128;51.096;17.190;2022-12-18T01:53:21;-4.50;99.90
21928;DHT22;11128;51.096;17.190;2022-12-18T01:58:39;-4.50;99.90
21928;DHT22;11128;51.096;17.190;2022-12-18T02:03:43;-4.50;99.90
21928;DHT22;11128;51.096;17.190;2022-12-18T02:09:02;-4.40;99.90
21928;DHT22;11128;51.096;17.190;2022-12-18T02:19:35;-4.50;99.90
21928;DHT22;11128;51.096;17.190;2022-12-18T02:25:04;-4.50;99.90
21928;DHT22;11128;51.096;17.190;2022-12-18T02:30:08;-4.40;99.90
21928;DHT22;11128;51.096;17.190;2022-12-18T02:35:15;-4.40;99.90
21928;DHT22;11128;51.096;17.190;2022-12-18T02:40:17;-4.40;99.90
21928;DHT22;11128;51.096;17.190;2022-12-18T02:50:35;-4.40;99.90
21928;DHT22;11128;51.096;17.190;2022-12-18T02:56:05;-4.10;99.90
21928;DHT22;11128;51.096;17.190;2022-12-18T03:01:24;-4.30;99.90
21928;DHT22;11128;51.096;17.190;2022-12-18T03:06:37;-4.20;99.90
21928;DHT22;11128;51.096;17.190;2022-12-18T03:11:43;-4.30;99.90
21928;DHT22;11128;51.096;17.190;2022-12-18T03:17:09;-4.30;99.90
21928;DHT22;11128;51.096;17.190;2022-12-18T03:27:15;-4.30;99.90
21928;DHT22;11128;51.096;17.190;2022-12-18T03:32:27;-4.30;99.90
21928;DHT22;11128;51.096;17.190;2022-12-18T03:37:33;-4.30;99.90
21928;DHT22;11128;51.096;17.190;2022-12-18T03:42:46;-4.30;99.90
21928;DHT22;11128;51.096;17.190;2022-12-18T03:48:08;-4.30;99.90
21928;DHT22;11128;51.096;17.190;2022-12-18T03:53:28;-4.30;99.90
21928;DHT22;11128;51.096;17.190;2022-12-18T03:58:35;-4.20;99.90
21928;DHT22;11128;51.096;17.190;2022-12-18T04:03:39;-4.30;99.90
21928;DHT22;11128;51.096;17.190;2022-12-18T04:08:41;-4.40;99.90
21928;DHT22;11128;51.096;17.190;2022-12-18T04:48:52;-4.40;99.90
21928;DHT22;11128;51.096;17.190;2022-12-18T06:04:15;-4.50;1.00
21928;DHT22;11128;51.096;17.190;2022-12-18T06:14:18;-4.60;1.00
21928;DHT22;11128;51.096;17.190;2022-12-18T06:39:27;-4.60;99.90
21928;DHT22;11128;51.096;17.190;2022-12-18T06:44:29;-4.30;99.90
21928;DHT22;11128;51.096;17.190;2022-12-18T07:29:41;-4.60;99.90
21928;DHT22;11128;51.096;17.190;2022-12-18T07:49:47;-4.30;99.90
21928;DHT22;11128;51.096;17.190;2022-12-18T07:59:50;-4.60;99.90
21928;DHT22;11128;51.096;17.190;2022-12-18T08:45:05;-4.50;99.90
21928;DHT22;11128;51.096;17.190;2022-12-18T08:55:09;-4.70;99.90
21928;DHT22;11128;51.096;17.190;2022-12-18T09:00:11;-4.60;99.90
21928;DHT22;11128;51.096;17.190;2022-12-18T09:25:20;-4.30;99.90
21928;DHT22;11128;51.096;17.190;2022-12-18T09:40:25;-4.30;99.90
21928;DHT22;11128;51.096;17.190;2022-12-18T09:45:40;-4.40;99.90
21928;DHT22;11128;51.096;17.190;2022-12-18T09:50:42;-4.40;99.90
21928;DHT22;11128;51.096;17.190;2022-12-18T09:55:45;-4.10;99.90
21928;DHT22;11128;51.096;17.190;2022-12-18T10:00:47;-4.30;99.90
21928;DHT22;11128;51.096;17.190;2022-12-18T10:10:59;-4.20;99.90
21928;DHT22;11128;51.096;17.190;2022-12-18T10:16:16;-4.20;99.90
21928;DHT22;11128;51.096;17.190;2022-12-18T10:21:51;-4.20;99.90
21928;DHT22;11128;51.096;17.190;2022-12-18T10:27:16;-4.30;99.90
21928;DHT22;11128;51.096;17.190;2022-12-18T10:38:39;-4.40;99.90
21928;DHT22;11128;51.096;17.190;2022-12-18T10:43:41;-4.40;99.90
21928;DHT22;11128;51.096;17.190;2022-12-18T10:53:57;-4.30;99.90
21928;DHT22;11128;51.096;17.190;2022-12-18T10:59:07;-4.00;99.90
21928;DHT22;11128;51.096;17.190;2022-12-18T11:09:22;-4.30;99.90
21928;DHT22;11128;51.096;17.190;2022-12-18T11:14:27;-4.10;99.90
21928;DHT22;11128;51.096;17.190;2022-12-18T11:19:37;-4.20;99.90
21928;DHT22;11128;51.096;17.190;2022-12-18T11:24:39;-4.00;99.90
21928;DHT22;11128;51.096;17.190;2022-12-18T11:29:41;-4.00;99.90
21928;DHT22;11128;51.096;17.190;2022-12-18T11:34:47;-4.10;99.90
21928;DHT22;11128;51.096;17.190;2022-12-18T11:39:54;-4.10;99.90
21928;DHT22;11128;51.096;17.190;2022-12-18T11:45:31;-3.90;99.90
21928;DHT22;11128;51.096;17.190;2022-12-18T11:50:57;-3.90;99.90
21928;DHT22;11128;51.096;17.190;2022-12-18T12:38:14;-3.40;99.90
21928;DHT22;11128;51.096;17.190;2022-12-18T12:43:41;-3.60;99.90
21928;DHT22;11128;51.096;17.190;2022-12-18T12:48:47;-3.90;99.90
21928;DHT22;11128;51.096;17.190;2022-12-18T12:53:49;-3.80;99.90
21928;DHT22;11128;51.096;17.190;2022-12-18T13:09:32;-3.50;99.90
21928;DHT22;11128;51.096;17.190;2022-12-18T13:14:34;-3.40;99.90
21928;DHT22;11128;51.096;17.190;2022-12-18T13:19:36;-4.00;99.90
21928;DHT22;11128;51.096;17.190;2022-12-18T13:24:38;-3.80;99.90
21928;DHT22;11128;51.096;17.190;2022-12-18T13:29:43;-3.90;99.90
21928;DHT22;11128;51.096;17.190;2022-12-18T13:34:45;-3.80;99.90
21928;DHT22;11128;51.096;17.190;2022-12-18T13:44:48;-4.00;99.90
21928;DHT22;11128;51.096;17.190;2022-12-18T13:49:49;-4.20;99.90
21928;DHT22;11128;51.096;17.190;2022-12-18T13:54:54;-4.30;99.90
21928;DHT22;11128;51.096;17.190;2022-12-18T13:59:57;-4.50;99.90
21928;DHT22;11128;51.096;17.190;2022-12-18T14:10:01;-4.90;99.90
21928;DHT22;11128;51.096;17.190;2022-12-18T14:15:05;-4.70;99.90
21928;DHT22;11128;51.096;17.190;2022-12-18T14:20:14;-4.60;99.90
21928;DHT22;11128;51.096;17.190;2022-12-18T14:25:27;-4.80;99.90
21928;DHT22;11128;51.096;17.190;2022-12-18T14:30:42;-5.10;99.90
21928;DHT22;11128;51.096;17.190;2022-12-18T14:36:00;-4.90;99.90
21928;DHT22;11128;51.096;17.190;2022-12-18T14:46:06;-5.40;99.90
21928;DHT22;11128;51.096;17.190;2022-12-18T14:51:28;-5.30;99.90
21928;DHT22;11128;51.096;17.190;2022-12-18T14:56:33;-5.40;99.90
21928;DHT22;11128;51.096;17.190;2022-12-18T15:01:48;-5.70;99.90
21928;DHT22;11128;51.096;17.190;2022-12-18T15:12:35;-5.20;99.90
21928;DHT22;11128;51.096;17.190;2022-12-18T15:17:42;-5.40;99.90
21928;DHT22;11128;51.096;17.190;2022-12-18T15:22:47;-5.90;99.90
21928;DHT22;11128;51.096;17.190;2022-12-18T15:27:48;-4.80;99.90
21928;DHT22;11128;51.096;17.190;2022-12-18T15:32:51;-5.40;99.90
21928;DHT22;11128;51.096;17.190;2022-12-18T15:37:52;-5.30;99.90
21928;DHT22;11128;51.096;17.190;2022-12-18T15:42:55;-5.50;99.90
21928;DHT22;11128;51.096;17.190;2022-12-18T15:48:20;-5.50;99.90
21928;DHT22;11128;51.096;17.190;2022-12-18T15:53:23;-5.70;99.90
21928;DHT22;11128;51.096;17.190;2022-12-18T15:58:24;-5.50;99.90
21928;DHT22;11128;51.096;17.190;2022-12-18T16:03:26;-5.70;99.90
21928;DHT22;11128;51.096;17.190;2022-12-18T16:08:29;-5.60;99.90
21928;DHT22;11128;51.096;17.190;2022-12-18T16:23:34;-5.80;99.90
21928;DHT22;11128;51.096;17.190;2022-12-18T16:28:36;-6.00;99.90
21928;DHT22;11128;51.096;17.190;2022-12-18T16:33:38;-6.00;99.90
21928;DHT22;11128;51.096;17.190;2022-12-18T16:38:40;-6.00;99.90
21928;DHT22;11128;51.096;17.190;2022-12-18T16:43:41;-6.10;99.90
21928;DHT22;11128;51.096;17.190;2022-12-18T16:48:43;-6.00;99.90
21928;DHT22;11128;51.096;17.190;2022-12-18T16:53:44;-6.50;99.90
21928;DHT22;11128;51.096;17.190;2022-12-18T16:58:57;-6.30;99.90
21928;DHT22;11128;51.096;17.190;2022-12-18T17:04:01;-6.30;99.90
21928;DHT22;11128;51.096;17.190;2022-12-18T17:09:05;-6.70;99.90
21928;DHT22;11128;51.096;17.190;2022-12-18T17:14:09;-6.90;99.90
21928;DHT22;11128;51.096;17.190;2022-12-18T17:19:11;-6.40;99.90
21928;DHT22;11128;51.096;17.190;2022-12-18T17:24:13;-6.60;99.90
21928;DHT22;11128;51.096;17.190;2022-12-18T17:29:17;-6.80;99.90
21928;DHT22;11128;51.096;17.190;2022-12-18T17:34:20;-6.30;99.90
21928;DHT22;11128;51.096;17.190;2022-12-18T17:39:22;-6.50;99.90
21928;DHT22;11128;51.096;17.190;2022-12-18T17:44:23;-7.00;99.90
21928;DHT22;11128;51.096;17.190;2022-12-18T17:49:24;-6.90;99.90
21928;DHT22;11128;51.096;17.190;2022-12-18T17:54:26;-6.70;99.90
21928;DHT22;11128;51.096;17.190;2022-12-18T17:59:27;-7.30;99.90
21928;DHT22;11128;51.096;17.190;2022-12-18T18:04:28;-7.10;99.90
21928;DHT22;11128;51.096;17.190;2022-12-18T18:09:30;-7.20;99.90
21928;DHT22;11128;51.096;17.190;2022-12-18T18:14:31;-7.00;99.90
21928;DHT22;11128;51.096;17.190;2022-12-18T18:19:33;-7.30;99.90
21928;DHT22;11128;51.096;17.190;2022-12-18T18:24:34;-7.20;99.90
21928;DHT22;11128;51.096;17.190;2022-12-18T18:29:36;-7.40;99.90
21928;DHT22;11128;51.096;17.190;2022-12-18T18:34:40;-7.50;99.90
21928;DHT22;11128;51.096;17.190;2022-12-18T18:39:42;-7.40;99.90
21928;DHT22;11128;51.096;17.190;2022-12-18T18:44:44;-7.60;99.90
21928;DHT22;11128;51.096;17.190;2022-12-18T18:49:47;-7.80;99.90
21928;DHT22;11128;51.096;17.190;2022-12-18T18:54:48;-7.80;99.90
21928;DHT22;11128;51.096;17.190;2022-12-18T18:59:49;-7.90;99.90
21928;DHT22;11128;51.096;17.190;2022-12-18T19:05:09;-8.10;99.90
21928;DHT22;11128;51.096;17.190;2022-12-18T19:15:22;-7.80;99.90
21928;DHT22;11128;51.096;17.190;2022-12-18T19:20:23;-7.80;99.90
21928;DHT22;11128;51.096;17.190;2022-12-18T19:25:25;-7.90;99.90
21928;DHT22;11128;51.096;17.190;2022-12-18T19:30:29;-7.80;99.90
21928;DHT22;11128;51.096;17.190;2022-12-18T19:35:30;-8.00;99.90
21928;DHT22;11128;51.096;17.190;2022-12-18T19:45:33;-7.60;99.90
21928;DHT22;11128;51.096;17.190;2022-12-18T19:50:40;-7.90;99.90
21928;DHT22;11128;51.096;17.190;2022-12-18T19:55:42;-8.00;99.90
21928;DHT22;11128;51.096;17.190;2022-12-18T20:00:44;-8.20;99.90
21928;DHT22;11128;51.096;17.190;2022-12-18T20:05:45;-7.80;99.90
21928;DHT22;11128;51.096;17.190;2022-12-18T20:10:47;-8.00;99.90
21928;DHT22;11128;51.096;17.190;2022-12-18T20:20:50;-7.80;99.90
21928;DHT22;11128;51.096;17.190;2022-12-18T20:25:52;-7.80;99.90
21928;DHT22;11128;51.096;17.190;2022-12-18T20:31:01;-7.80;99.90
21928;DHT22;11128;51.096;17.190;2022-12-18T20:36:06;-8.40;99.90
21928;DHT22;11128;51.096;17.190;2022-12-18T20:41:09;-8.00;99.90
21928;DHT22;11128;51.096;17.190;2022-12-18T20:46:14;-7.90;99.90
21928;DHT22;11128;51.096;17.190;2022-12-18T20:51:17;-7.80;99.90
21928;DHT22;11128;51.096;17.190;2022-12-18T20:56:20;-7.70;99.90
21928;DHT22;11128;51.096;17.190;2022-12-18T21:01:23;-7.60;99.90
21928;DHT22;11128;51.096;17.190;2022-12-18T21:06:26;-7.80;99.90
21928;DHT22;11128;51.096;17.190;2022-12-18T21:11:29;-7.60;99.90
21928;DHT22;11128;51.096;17.190;2022-12-18T21:16:53;-7.70;99.90
21928;DHT22;11128;51.096;17.190;2022-12-18T21:21:55;-7.90;99.90
21928;DHT22;11128;51.096;17.190;2022-12-18T21:27:00;-7.70;99.90
21928;DHT22;11128;51.096;17.190;2022-12-18T21:32:02;-7.80;99.90
21928;DHT22;11128;51.096;17.190;2022-12-18T21:37:03;-8.00;99.90
21928;DHT22;11128;51.096;17.190;2022-12-18T21:42:05;-7.90;99.90
21928;DHT22;11128;51.096;17.190;2022-12-18T21:47:24;-8.10;99.90
21928;DHT22;11128;51.096;17.190;2022-12-18T21:57:27;-8.10;99.90
21928;DHT22;11128;51.096;17.190;2022-12-18T22:02:28;-8.20;99.90
21928;DHT22;11128;51.096;17.190;2022-12-18T22:12:31;-8.30;99.90
21928;DHT22;11128;51.096;17.190;2022-12-18T22:17:35;-7.90;99.90
21928;DHT22;11128;51.096;17.190;2022-12-18T22:22:36;-8.10;99.90
21928;DHT22;11128;51.096;17.190;2022-12-18T22:27:37;-8.00;99.90
21928;DHT22;11128;51.096;17.190;2022-12-18T22:32:38;-8.20;99.90
21928;DHT22;11128;51.096;17.190;2022-12-18T22:37:39;-8.20;99.90
21928;DHT22;11128;51.096;17.190;2022-12-18T22:42:40;-8.20;99.90
21928;DHT22;11128;51.096;17.190;2022-12-18T22:47:41;-8.10;99.90
21928;DHT22;11128;51.096;17.190;2022-12-18T22:52:43;-8.10;99.90
21928;DHT22;11128;51.096;17.190;2022-12-18T22:57:44;-8.10;99.90
21928;DHT22;11128;51.096;17.190;2022-12-18T23:02:45;-7.90;99.90
21928;DHT22;11128;51.096;17.190;2022-12-18T23:07:47;-8.10;99.90
21928;DHT22;11128;51.096;17.190;2022-12-18T23:12:48;-7.90;99.90
21928;DHT22;11128;51.096;17.190;2022-12-18T23:17:49;-8.00;99.90
21928;DHT22;11128;51.096;17.190;2022-12-18T23:22:50;-7.90;99.90
21928;DHT22;11128;51.096;17.190;2022-12-18T23:27:51;-8.10;99.90
21928;DHT22;11128;51.096;17.190;2022-12-18T23:32:53;-8.00;99.90
21928;DHT22;11128;51.096;17.190;2022-12-18T23:37:54;-8.10;99.90
21928;DHT22;11128;51.096;17.190;2022-12-18T23:42:55;-8.20;99.90
21928;DHT22;11128;51.096;17.190;2022-12-18T23:47:56;-8.00;99.90
21928;DHT22;11128;51.096;17.190;2022-12-18T23:52:58;-7.50;99.90
21928;DHT22;11128;51.096;17.190;2022-12-18T23:57:59;-8.00;99.90
